sensor_id;sensor_type;location;lat;lon;timestamp;P1;durP1;ratioP1;P2;durP2;ratioP2
36817;SDS011;22761;51.542;16.450;2023-05-07T00:32:29;9.20;;;7.70;;
36817;SDS011;22761;51.542;16.450;2023-05-07T00:34:58;10.90;;;8.10;;
36817;SDS011;22761;51.542;16.450;2023-05-07T00:37:26;9.90;;;7.90;;
36817;SDS011;22761;51.542;16.450;2023-05-07T00:39:54;10.40;;;7.70;;
36817;SDS011;22761;51.542;16.450;2023-05-07T00:42:23;10.80;;;8.10;;
36817;SDS011;22761;51.542;16.450;2023-05-07T00:44:51;10.10;;;7.60;;
36817;SDS011;22761;51.542;16.450;2023-05-07T00:47:20;8.80;;;7.50;;
36817;SDS011;22761;51.542;16.450;2023-05-07T00:49:48;10.10;;;7.90;;
36817;SDS011;22761;51.542;16.450;2023-05-07T00:52:16;10.40;;;7.40;;
36817;SDS011;22761;51.542;16.450;2023-05-07T00:54:45;9.30;;;7.50;;
36817;SDS011;22761;51.542;16.450;2023-05-07T00:57:14;11.40;;;7.40;;
36817;SDS011;22761;51.542;16.450;2023-05-07T00:59:42;8.50;;;7.30;;
36817;SDS011;22761;51.542;16.450;2023-05-07T01:02:11;9.90;;;8.00;;
36817;SDS011;22761;51.542;16.450;2023-05-07T01:04:39;10.00;;;8.10;;
36817;SDS011;22761;51.542;16.450;2023-05-07T01:07:08;10.00;;;7.50;;
36817;SDS011;22761;51.542;16.450;2023-05-07T01:09:37;8.80;;;7.10;;
36817;SDS011;22761;51.542;16.450;2023-05-07T01:12:06;10.40;;;7.90;;
36817;SDS011;22761;51.542;16.450;2023-05-07T01:14:35;10.60;;;8.00;;
36817;SDS011;22761;51.542;16.450;2023-05-07T01:17:03;9.70;;;7.80;;
36817;SDS011;22761;51.542;16.450;2023-05-07T01:19:32;10.90;;;8.00;;
36817;SDS011;22761;51.542;16.450;2023-05-07T01:22:06;9.60;;;7.80;;
36817;SDS011;22761;51.542;16.450;2023-05-07T01:24:45;11.30;;;7.70;;
36817;SDS011;22761;51.542;16.450;2023-05-07T01:27:13;10.50;;;7.40;;
36817;SDS011;22761;51.542;16.450;2023-05-07T01:29:42;9.50;;;7.10;;
36817;SDS011;22761;51.542;16.450;2023-05-07T01:32:10;11.60;;;7.50;;
36817;SDS011;22761;51.542;16.450;2023-05-07T01:34:39;10.30;;;7.40;;
36817;SDS011;22761;51.542;16.450;2023-05-07T01:37:08;8.40;;;6.90;;
36817;SDS011;22761;51.542;16.450;2023-05-07T01:39:38;10.70;;;7.10;;
36817;SDS011;22761;51.542;16.450;2023-05-07T01:42:07;9.90;;;7.20;;
36817;SDS011;22761;51.542;16.450;2023-05-07T01:44:36;8.90;;;6.90;;
36817;SDS011;22761;51.542;16.450;2023-05-07T01:47:04;9.00;;;6.90;;
36817;SDS011;22761;51.542;16.450;2023-05-07T01:49:33;10.20;;;6.90;;
36817;SDS011;22761;51.542;16.450;2023-05-07T01:52:02;7.50;;;6.30;;
36817;SDS011;22761;51.542;16.450;2023-05-07T01:54:31;9.80;;;7.20;;
36817;SDS011;22761;51.542;16.450;2023-05-07T01:56:59;7.80;;;6.50;;
36817;SDS011;22761;51.542;16.450;2023-05-07T01:59:28;8.40;;;6.40;;
36817;SDS011;22761;51.542;16.450;2023-05-07T02:01:56;10.70;;;6.40;;
36817;SDS011;22761;51.542;16.450;2023-05-07T02:04:24;7.30;;;6.50;;
36817;SDS011;22761;51.542;16.450;2023-05-07T02:06:53;9.90;;;6.60;;
36817;SDS011;22761;51.542;16.450;2023-05-07T02:09:22;11.30;;;7.10;;
36817;SDS011;22761;51.542;16.450;2023-05-07T02:11:51;8.70;;;6.60;;
36817;SDS011;22761;51.542;16.450;2023-05-07T02:14:21;10.80;;;6.30;;
36817;SDS011;22761;51.542;16.450;2023-05-07T02:16:50;11.60;;;6.40;;
36817;SDS011;22761;51.542;16.450;2023-05-07T02:19:19;8.90;;;6.20;;
36817;SDS011;22761;51.542;16.450;2023-05-07T02:21:49;8.30;;;6.70;;
36817;SDS011;22761;51.542;16.450;2023-05-07T02:24:17;9.10;;;6.80;;
36817;SDS011;22761;51.542;16.450;2023-05-07T02:26:46;9.00;;;6.60;;
36817;SDS011;22761;51.542;16.450;2023-05-07T02:29:14;10.00;;;6.80;;
36817;SDS011;22761;51.542;16.450;2023-05-07T02:31:42;9.10;;;6.60;;
36817;SDS011;22761;51.542;16.450;2023-05-07T02:34:11;10.00;;;6.70;;
36817;SDS011;22761;51.542;16.450;2023-05-07T02:36:39;9.90;;;6.70;;
36817;SDS011;22761;51.542;16.450;2023-05-07T02:39:11;7.90;;;6.40;;
36817;SDS011;22761;51.542;16.450;2023-05-07T02:41:41;7.20;;;6.40;;
36817;SDS011;22761;51.542;16.450;2023-05-07T02:44:09;9.80;;;6.30;;
36817;SDS011;22761;51.542;16.450;2023-05-07T02:46:37;8.40;;;6.50;;
36817;SDS011;22761;51.542;16.450;2023-05-07T02:49:08;7.90;;;6.60;;
36817;SDS011;22761;51.542;16.450;2023-05-07T02:51:37;8.40;;;7.10;;
36817;SDS011;22761;51.542;16.450;2023-05-07T02:54:08;9.30;;;6.90;;
36817;SDS011;22761;51.542;16.450;2023-05-07T02:56:36;9.40;;;6.70;;
36817;SDS011;22761;51.542;16.450;2023-05-07T02:59:04;13.00;;;6.20;;
36817;SDS011;22761;51.542;16.450;2023-05-07T03:01:36;9.60;;;7.40;;
36817;SDS011;22761;51.542;16.450;2023-05-07T03:04:07;8.00;;;6.90;;
36817;SDS011;22761;51.542;16.450;2023-05-07T03:06:35;8.10;;;6.90;;
36817;SDS011;22761;51.542;16.450;2023-05-07T03:09:03;11.60;;;6.70;;
36817;SDS011;22761;51.542;16.450;2023-05-07T03:11:31;8.80;;;7.30;;
36817;SDS011;22761;51.542;16.450;2023-05-07T03:14:00;8.20;;;6.60;;
36817;SDS011;22761;51.542;16.450;2023-05-07T03:16:28;7.60;;;6.80;;
36817;SDS011;22761;51.542;16.450;2023-05-07T03:18:57;9.70;;;6.60;;
36817;SDS011;22761;51.542;16.450;2023-05-07T03:21:25;7.80;;;6.70;;
36817;SDS011;22761;51.542;16.450;2023-05-07T03:23:54;11.90;;;7.20;;
36817;SDS011;22761;51.542;16.450;2023-05-07T03:26:22;8.70;;;7.20;;
36817;SDS011;22761;51.542;16.450;2023-05-07T03:28:50;7.80;;;6.60;;
36817;SDS011;22761;51.542;16.450;2023-05-07T03:31:19;10.40;;;7.40;;
36817;SDS011;22761;51.542;16.450;2023-05-07T03:33:54;12.10;;;7.10;;
36817;SDS011;22761;51.542;16.450;2023-05-07T03:36:24;9.40;;;7.10;;
36817;SDS011;22761;51.542;16.450;2023-05-07T03:38:55;11.10;;;7.30;;
36817;SDS011;22761;51.542;16.450;2023-05-07T03:43:55;9.60;;;6.80;;
36817;SDS011;22761;51.542;16.450;2023-05-07T03:46:23;9.20;;;7.00;;
36817;SDS011;22761;51.542;16.450;2023-05-07T03:48:54;10.20;;;7.00;;
36817;SDS011;22761;51.542;16.450;2023-05-07T03:51:23;10.60;;;6.60;;
36817;SDS011;22761;51.542;16.450;2023-05-07T03:53:51;10.40;;;7.30;;
36817;SDS011;22761;51.542;16.450;2023-05-07T03:56:25;8.10;;;6.60;;
36817;SDS011;22761;51.542;16.450;2023-05-07T03:58:56;10.40;;;7.10;;
36817;SDS011;22761;51.542;16.450;2023-05-07T04:01:25;9.70;;;7.20;;
36817;SDS011;22761;51.542;16.450;2023-05-07T04:03:55;9.90;;;7.60;;
36817;SDS011;22761;51.542;16.450;2023-05-07T04:06:24;8.30;;;7.10;;
36817;SDS011;22761;51.542;16.450;2023-05-07T04:08:53;10.80;;;7.20;;
36817;SDS011;22761;51.542;16.450;2023-05-07T04:11:21;8.00;;;6.90;;
36817;SDS011;22761;51.542;16.450;2023-05-07T04:13:50;10.10;;;7.30;;
36817;SDS011;22761;51.542;16.450;2023-05-07T04:18:49;9.80;;;7.20;;
36817;SDS011;22761;51.542;16.450;2023-05-07T04:21:18;8.70;;;7.20;;
36817;SDS011;22761;51.542;16.450;2023-05-07T04:23:48;8.10;;;6.90;;
36817;SDS011;22761;51.542;16.450;2023-05-07T04:26:16;10.20;;;7.00;;
36817;SDS011;22761;51.542;16.450;2023-05-07T04:28:45;7.80;;;6.30;;
36817;SDS011;22761;51.542;16.450;2023-05-07T04:31:14;9.10;;;7.40;;
36817;SDS011;22761;51.542;16.450;2023-05-07T04:33:44;8.50;;;6.90;;
36817;SDS011;22761;51.542;16.450;2023-05-07T04:36:13;9.00;;;7.10;;
36817;SDS011;22761;51.542;16.450;2023-05-07T04:38:49;10.30;;;7.10;;
36817;SDS011;22761;51.542;16.450;2023-05-07T04:41:18;8.80;;;7.10;;
36817;SDS011;22761;51.542;16.450;2023-05-07T04:43:47;8.40;;;6.70;;
36817;SDS011;22761;51.542;16.450;2023-05-07T04:46:15;10.90;;;7.10;;
36817;SDS011;22761;51.542;16.450;2023-05-07T04:48:44;8.20;;;6.40;;
36817;SDS011;22761;51.542;16.450;2023-05-07T04:51:13;10.30;;;6.80;;
36817;SDS011;22761;51.542;16.450;2023-05-07T04:53:41;14.50;;;7.20;;
36817;SDS011;22761;51.542;16.450;2023-05-07T04:56:11;9.30;;;7.10;;
36817;SDS011;22761;51.542;16.450;2023-05-07T04:58:41;8.00;;;6.90;;
36817;SDS011;22761;51.542;16.450;2023-05-07T05:01:10;11.70;;;7.70;;
36817;SDS011;22761;51.542;16.450;2023-05-07T05:03:39;9.00;;;6.90;;
36817;SDS011;22761;51.542;16.450;2023-05-07T05:06:08;8.50;;;7.00;;
36817;SDS011;22761;51.542;16.450;2023-05-07T05:08:36;10.10;;;7.50;;
36817;SDS011;22761;51.542;16.450;2023-05-07T05:11:05;10.50;;;7.40;;
36817;SDS011;22761;51.542;16.450;2023-05-07T05:13:35;7.60;;;6.70;;
36817;SDS011;22761;51.542;16.450;2023-05-07T05:16:10;9.00;;;7.00;;
36817;SDS011;22761;51.542;16.450;2023-05-07T05:18:38;9.90;;;7.90;;
36817;SDS011;22761;51.542;16.450;2023-05-07T05:21:08;11.70;;;8.40;;
36817;SDS011;22761;51.542;16.450;2023-05-07T05:23:36;10.10;;;7.40;;
36817;SDS011;22761;51.542;16.450;2023-05-07T05:26:04;10.10;;;8.00;;
36817;SDS011;22761;51.542;16.450;2023-05-07T05:28:33;9.40;;;8.20;;
36817;SDS011;22761;51.542;16.450;2023-05-07T05:31:02;9.50;;;8.10;;
36817;SDS011;22761;51.542;16.450;2023-05-07T05:33:33;10.40;;;8.50;;
36817;SDS011;22761;51.542;16.450;2023-05-07T05:36:04;11.10;;;7.90;;
36817;SDS011;22761;51.542;16.450;2023-05-07T05:38:33;11.80;;;8.50;;
36817;SDS011;22761;51.542;16.450;2023-05-07T05:41:01;11.90;;;9.00;;
36817;SDS011;22761;51.542;16.450;2023-05-07T05:43:30;9.80;;;8.40;;
36817;SDS011;22761;51.542;16.450;2023-05-07T05:45:58;12.00;;;8.70;;
36817;SDS011;22761;51.542;16.450;2023-05-07T05:48:28;10.10;;;7.80;;
36817;SDS011;22761;51.542;16.450;2023-05-07T05:50:58;13.70;;;8.70;;
36817;SDS011;22761;51.542;16.450;2023-05-07T05:53:26;11.50;;;8.50;;
36817;SDS011;22761;51.542;16.450;2023-05-07T05:55:54;11.80;;;8.80;;
36817;SDS011;22761;51.542;16.450;2023-05-07T05:58:22;13.00;;;8.70;;
36817;SDS011;22761;51.542;16.450;2023-05-07T06:00:55;11.30;;;8.60;;
36817;SDS011;22761;51.542;16.450;2023-05-07T06:03:25;11.00;;;8.30;;
36817;SDS011;22761;51.542;16.450;2023-05-07T06:05:55;11.00;;;8.50;;
36817;SDS011;22761;51.542;16.450;2023-05-07T06:08:23;11.80;;;8.90;;
36817;SDS011;22761;51.542;16.450;2023-05-07T06:10:52;15.80;;;9.50;;
36817;SDS011;22761;51.542;16.450;2023-05-07T06:13:20;12.00;;;9.10;;
36817;SDS011;22761;51.542;16.450;2023-05-07T06:15:51;11.70;;;8.80;;
36817;SDS011;22761;51.542;16.450;2023-05-07T06:18:19;11.00;;;8.70;;
36817;SDS011;22761;51.542;16.450;2023-05-07T06:20:47;11.70;;;9.30;;
36817;SDS011;22761;51.542;16.450;2023-05-07T06:23:23;12.90;;;9.10;;
36817;SDS011;22761;51.542;16.450;2023-05-07T06:25:51;14.20;;;9.70;;
36817;SDS011;22761;51.542;16.450;2023-05-07T06:28:22;12.60;;;9.60;;
36817;SDS011;22761;51.542;16.450;2023-05-07T06:30:52;11.10;;;9.30;;
36817;SDS011;22761;51.542;16.450;2023-05-07T06:33:20;9.90;;;8.40;;
36817;SDS011;22761;51.542;16.450;2023-05-07T06:35:48;11.10;;;9.00;;
36817;SDS011;22761;51.542;16.450;2023-05-07T06:38:16;13.20;;;8.80;;
36817;SDS011;22761;51.542;16.450;2023-05-07T06:40:48;11.00;;;8.40;;
36817;SDS011;22761;51.542;16.450;2023-05-07T06:43:17;10.00;;;8.30;;
36817;SDS011;22761;51.542;16.450;2023-05-07T06:45:54;10.60;;;8.60;;
36817;SDS011;22761;51.542;16.450;2023-05-07T06:48:23;11.90;;;8.60;;
36817;SDS011;22761;51.542;16.450;2023-05-07T06:51:00;10.20;;;8.10;;
36817;SDS011;22761;51.542;16.450;2023-05-07T06:53:29;11.20;;;8.00;;
36817;SDS011;22761;51.542;16.450;2023-05-07T06:55:59;8.20;;;6.80;;
36817;SDS011;22761;51.542;16.450;2023-05-07T06:58:27;8.50;;;6.90;;
36817;SDS011;22761;51.542;16.450;2023-05-07T07:00:56;9.00;;;7.20;;
36817;SDS011;22761;51.542;16.450;2023-05-07T07:03:24;8.10;;;6.40;;
36817;SDS011;22761;51.542;16.450;2023-05-07T07:05:55;8.60;;;6.90;;
36817;SDS011;22761;51.542;16.450;2023-05-07T07:08:24;8.90;;;6.60;;
36817;SDS011;22761;51.542;16.450;2023-05-07T07:10:53;9.10;;;7.70;;
36817;SDS011;22761;51.542;16.450;2023-05-07T07:13:21;10.00;;;7.20;;
36817;SDS011;22761;51.542;16.450;2023-05-07T07:15:49;8.20;;;6.80;;
36817;SDS011;22761;51.542;16.450;2023-05-07T07:18:18;7.90;;;7.10;;
36817;SDS011;22761;51.542;16.450;2023-05-07T07:20:47;9.40;;;7.20;;
36817;SDS011;22761;51.542;16.450;2023-05-07T07:23:15;11.50;;;7.20;;
36817;SDS011;22761;51.542;16.450;2023-05-07T07:25:44;8.10;;;7.30;;
36817;SDS011;22761;51.542;16.450;2023-05-07T07:28:12;9.20;;;6.80;;
36817;SDS011;22761;51.542;16.450;2023-05-07T07:30:41;8.30;;;7.00;;
36817;SDS011;22761;51.542;16.450;2023-05-07T07:33:10;8.90;;;7.50;;
36817;SDS011;22761;51.542;16.450;2023-05-07T07:35:39;8.90;;;7.20;;
36817;SDS011;22761;51.542;16.450;2023-05-07T07:38:07;12.00;;;8.20;;
36817;SDS011;22761;51.542;16.450;2023-05-07T07:40:36;8.80;;;7.20;;
36817;SDS011;22761;51.542;16.450;2023-05-07T07:43:05;8.50;;;7.50;;
36817;SDS011;22761;51.542;16.450;2023-05-07T07:45:34;10.90;;;8.50;;
36817;SDS011;22761;51.542;16.450;2023-05-07T07:48:02;8.50;;;7.60;;
36817;SDS011;22761;51.542;16.450;2023-05-07T07:50:32;11.80;;;6.90;;
36817;SDS011;22761;51.542;16.450;2023-05-07T07:53:14;9.00;;;6.70;;
36817;SDS011;22761;51.542;16.450;2023-05-07T07:55:42;8.30;;;6.20;;
36817;SDS011;22761;51.542;16.450;2023-05-07T07:58:13;7.60;;;6.30;;
36817;SDS011;22761;51.542;16.450;2023-05-07T08:00:41;9.10;;;6.60;;
36817;SDS011;22761;51.542;16.450;2023-05-07T08:03:10;8.10;;;6.20;;
36817;SDS011;22761;51.542;16.450;2023-05-07T08:05:42;11.70;;;6.90;;
36817;SDS011;22761;51.542;16.450;2023-05-07T08:08:11;9.90;;;6.50;;
36817;SDS011;22761;51.542;16.450;2023-05-07T08:10:39;7.30;;;5.90;;
36817;SDS011;22761;51.542;16.450;2023-05-07T08:13:13;8.90;;;6.50;;
36817;SDS011;22761;51.542;16.450;2023-05-07T08:15:42;8.90;;;6.90;;
36817;SDS011;22761;51.542;16.450;2023-05-07T08:18:11;8.80;;;5.70;;
36817;SDS011;22761;51.542;16.450;2023-05-07T08:20:39;7.50;;;5.70;;
36817;SDS011;22761;51.542;16.450;2023-05-07T08:23:11;7.80;;;6.20;;
36817;SDS011;22761;51.542;16.450;2023-05-07T08:25:40;7.70;;;6.10;;
36817;SDS011;22761;51.542;16.450;2023-05-07T08:28:11;7.60;;;5.70;;
36817;SDS011;22761;51.542;16.450;2023-05-07T08:30:40;8.70;;;5.50;;
36817;SDS011;22761;51.542;16.450;2023-05-07T08:33:08;7.50;;;5.50;;
36817;SDS011;22761;51.542;16.450;2023-05-07T08:35:38;8.70;;;5.90;;
36817;SDS011;22761;51.542;16.450;2023-05-07T08:38:07;6.50;;;5.80;;
36817;SDS011;22761;51.542;16.450;2023-05-07T08:40:37;7.00;;;5.60;;
36817;SDS011;22761;51.542;16.450;2023-05-07T08:43:08;7.90;;;5.90;;
36817;SDS011;22761;51.542;16.450;2023-05-07T08:45:40;7.50;;;6.00;;
36817;SDS011;22761;51.542;16.450;2023-05-07T08:48:16;6.90;;;5.50;;
36817;SDS011;22761;51.542;16.450;2023-05-07T08:50:52;7.10;;;5.80;;
36817;SDS011;22761;51.542;16.450;2023-05-07T08:53:21;7.40;;;5.80;;
36817;SDS011;22761;51.542;16.450;2023-05-07T08:55:50;6.70;;;5.80;;
36817;SDS011;22761;51.542;16.450;2023-05-07T08:58:19;7.20;;;5.50;;
36817;SDS011;22761;51.542;16.450;2023-05-07T09:00:48;8.70;;;6.20;;
36817;SDS011;22761;51.542;16.450;2023-05-07T09:03:16;10.70;;;6.10;;
36817;SDS011;22761;51.542;16.450;2023-05-07T09:05:48;6.90;;;5.50;;
36817;SDS011;22761;51.542;16.450;2023-05-07T09:08:17;6.30;;;5.50;;
36817;SDS011;22761;51.542;16.450;2023-05-07T09:10:47;7.80;;;5.70;;
36817;SDS011;22761;51.542;16.450;2023-05-07T09:13:16;6.30;;;5.70;;
36817;SDS011;22761;51.542;16.450;2023-05-07T09:18:15;6.60;;;5.50;;
36817;SDS011;22761;51.542;16.450;2023-05-07T09:20:44;6.30;;;5.10;;
36817;SDS011;22761;51.542;16.450;2023-05-07T09:23:12;8.70;;;5.60;;
36817;SDS011;22761;51.542;16.450;2023-05-07T09:25:43;5.70;;;4.90;;
36817;SDS011;22761;51.542;16.450;2023-05-07T09:28:19;6.80;;;5.50;;
36817;SDS011;22761;51.542;16.450;2023-05-07T09:30:47;7.00;;;5.60;;
36817;SDS011;22761;51.542;16.450;2023-05-07T09:33:15;7.00;;;5.70;;
36817;SDS011;22761;51.542;16.450;2023-05-07T09:35:51;8.00;;;5.70;;
36817;SDS011;22761;51.542;16.450;2023-05-07T09:38:20;7.50;;;5.00;;
36817;SDS011;22761;51.542;16.450;2023-05-07T09:43:48;5.80;;;4.90;;
36817;SDS011;22761;51.542;16.450;2023-05-07T09:46:30;6.90;;;5.40;;
36817;SDS011;22761;51.542;16.450;2023-05-07T09:49:01;8.80;;;5.40;;
36817;SDS011;22761;51.542;16.450;2023-05-07T09:51:43;6.70;;;5.30;;
36817;SDS011;22761;51.542;16.450;2023-05-07T09:54:16;7.10;;;5.20;;
36817;SDS011;22761;51.542;16.450;2023-05-07T09:56:46;6.70;;;5.10;;
36817;SDS011;22761;51.542;16.450;2023-05-07T09:59:17;6.80;;;5.20;;
36817;SDS011;22761;51.542;16.450;2023-05-07T10:01:45;6.80;;;5.20;;
36817;SDS011;22761;51.542;16.450;2023-05-07T10:04:14;5.40;;;4.80;;
36817;SDS011;22761;51.542;16.450;2023-05-07T10:06:43;5.50;;;4.90;;
36817;SDS011;22761;51.542;16.450;2023-05-07T10:09:13;5.90;;;4.70;;
36817;SDS011;22761;51.542;16.450;2023-05-07T10:11:42;5.30;;;4.60;;
36817;SDS011;22761;51.542;16.450;2023-05-07T10:14:11;8.00;;;4.90;;
36817;SDS011;22761;51.542;16.450;2023-05-07T10:16:41;5.30;;;4.10;;
36817;SDS011;22761;51.542;16.450;2023-05-07T10:19:12;7.50;;;4.70;;
36817;SDS011;22761;51.542;16.450;2023-05-07T10:21:51;4.80;;;4.10;;
36817;SDS011;22761;51.542;16.450;2023-05-07T10:24:27;5.00;;;4.30;;
36817;SDS011;22761;51.542;16.450;2023-05-07T10:26:57;5.00;;;4.40;;
36817;SDS011;22761;51.542;16.450;2023-05-07T10:36:58;5.80;;;5.20;;
36817;SDS011;22761;51.542;16.450;2023-05-07T10:39:27;5.20;;;4.50;;
36817;SDS011;22761;51.542;16.450;2023-05-07T10:41:55;5.10;;;4.50;;
36817;SDS011;22761;51.542;16.450;2023-05-07T10:44:25;5.90;;;4.90;;
36817;SDS011;22761;51.542;16.450;2023-05-07T10:47:12;4.60;;;4.10;;
36817;SDS011;22761;51.542;16.450;2023-05-07T10:52:26;5.50;;;4.90;;
36817;SDS011;22761;51.542;16.450;2023-05-07T11:01:28;4.40;;;4.00;;
36817;SDS011;22761;51.542;16.450;2023-05-07T11:04:24;5.50;;;4.00;;
36817;SDS011;22761;51.542;16.450;2023-05-07T11:07:25;4.50;;;4.00;;
36817;SDS011;22761;51.542;16.450;2023-05-07T11:10:02;4.50;;;4.00;;
36817;SDS011;22761;51.542;16.450;2023-05-07T11:12:54;6.10;;;4.70;;
36817;SDS011;22761;51.542;16.450;2023-05-07T11:18:04;5.10;;;3.60;;
36817;SDS011;22761;51.542;16.450;2023-05-07T11:26:18;3.90;;;3.40;;
36817;SDS011;22761;51.542;16.450;2023-05-07T11:28:47;4.60;;;3.50;;
36817;SDS011;22761;51.542;16.450;2023-05-07T11:31:17;4.80;;;3.40;;
36817;SDS011;22761;51.542;16.450;2023-05-07T11:33:49;3.80;;;3.20;;
36817;SDS011;22761;51.542;16.450;2023-05-07T11:36:20;4.00;;;3.30;;
36817;SDS011;22761;51.542;16.450;2023-05-07T11:38:51;5.00;;;3.30;;
36817;SDS011;22761;51.542;16.450;2023-05-07T11:41:19;3.80;;;3.10;;
36817;SDS011;22761;51.542;16.450;2023-05-07T11:43:55;4.20;;;3.60;;
36817;SDS011;22761;51.542;16.450;2023-05-07T11:46:24;3.90;;;3.50;;
36817;SDS011;22761;51.542;16.450;2023-05-07T11:48:52;4.40;;;3.50;;
36817;SDS011;22761;51.542;16.450;2023-05-07T11:51:22;5.40;;;3.40;;
36817;SDS011;22761;51.542;16.450;2023-05-07T11:56:19;3.90;;;3.50;;
36817;SDS011;22761;51.542;16.450;2023-05-07T11:58:48;4.50;;;3.40;;
36817;SDS011;22761;51.542;16.450;2023-05-07T12:01:17;3.60;;;3.30;;
36817;SDS011;22761;51.542;16.450;2023-05-07T12:03:46;3.60;;;3.30;;
36817;SDS011;22761;51.542;16.450;2023-05-07T12:06:15;3.80;;;3.30;;
36817;SDS011;22761;51.542;16.450;2023-05-07T12:08:44;5.70;;;3.20;;
36817;SDS011;22761;51.542;16.450;2023-05-07T12:11:16;3.20;;;2.90;;
36817;SDS011;22761;51.542;16.450;2023-05-07T12:13:49;3.70;;;2.70;;
36817;SDS011;22761;51.542;16.450;2023-05-07T12:16:18;3.10;;;2.80;;
36817;SDS011;22761;51.542;16.450;2023-05-07T12:18:47;4.50;;;3.10;;
36817;SDS011;22761;51.542;16.450;2023-05-07T12:21:15;5.00;;;2.80;;
36817;SDS011;22761;51.542;16.450;2023-05-07T12:23:45;3.40;;;2.60;;
36817;SDS011;22761;51.542;16.450;2023-05-07T12:26:13;3.60;;;2.40;;
36817;SDS011;22761;51.542;16.450;2023-05-07T12:28:41;5.10;;;2.70;;
36817;SDS011;22761;51.542;16.450;2023-05-07T12:31:10;3.20;;;2.90;;
36817;SDS011;22761;51.542;16.450;2023-05-07T12:33:38;4.30;;;3.00;;
36817;SDS011;22761;51.542;16.450;2023-05-07T12:36:08;2.90;;;2.30;;
36817;SDS011;22761;51.542;16.450;2023-05-07T12:38:39;3.70;;;2.60;;
36817;SDS011;22761;51.542;16.450;2023-05-07T12:41:10;4.30;;;2.80;;
36817;SDS011;22761;51.542;16.450;2023-05-07T12:43:41;3.40;;;3.00;;
36817;SDS011;22761;51.542;16.450;2023-05-07T12:46:12;4.20;;;3.20;;
36817;SDS011;22761;51.542;16.450;2023-05-07T12:48:46;3.70;;;3.00;;
36817;SDS011;22761;51.542;16.450;2023-05-07T12:51:14;4.60;;;3.60;;
36817;SDS011;22761;51.542;16.450;2023-05-07T12:53:43;3.40;;;2.80;;
36817;SDS011;22761;51.542;16.450;2023-05-07T12:56:12;4.00;;;3.10;;
36817;SDS011;22761;51.542;16.450;2023-05-07T12:58:43;5.10;;;3.00;;
36817;SDS011;22761;51.542;16.450;2023-05-07T13:01:11;4.10;;;3.50;;
36817;SDS011;22761;51.542;16.450;2023-05-07T13:03:47;4.20;;;3.50;;
36817;SDS011;22761;51.542;16.450;2023-05-07T13:06:16;3.80;;;3.20;;
36817;SDS011;22761;51.542;16.450;2023-05-07T13:08:45;4.40;;;3.60;;
36817;SDS011;22761;51.542;16.450;2023-05-07T13:11:13;4.50;;;3.20;;
36817;SDS011;22761;51.542;16.450;2023-05-07T13:13:41;4.20;;;3.60;;
36817;SDS011;22761;51.542;16.450;2023-05-07T13:16:10;5.50;;;3.80;;
36817;SDS011;22761;51.542;16.450;2023-05-07T13:18:40;4.40;;;3.70;;
36817;SDS011;22761;51.542;16.450;2023-05-07T13:21:08;5.20;;;3.90;;
36817;SDS011;22761;51.542;16.450;2023-05-07T13:23:38;5.90;;;3.40;;
36817;SDS011;22761;51.542;16.450;2023-05-07T13:26:06;5.00;;;3.80;;
36817;SDS011;22761;51.542;16.450;2023-05-07T13:28:55;4.10;;;3.70;;
36817;SDS011;22761;51.542;16.450;2023-05-07T13:31:24;3.90;;;3.50;;
36817;SDS011;22761;51.542;16.450;2023-05-07T13:33:53;3.90;;;3.40;;
36817;SDS011;22761;51.542;16.450;2023-05-07T13:36:21;3.90;;;3.50;;
36817;SDS011;22761;51.542;16.450;2023-05-07T13:38:50;7.00;;;4.00;;
36817;SDS011;22761;51.542;16.450;2023-05-07T13:41:19;4.20;;;3.80;;
36817;SDS011;22761;51.542;16.450;2023-05-07T13:43:48;6.00;;;3.40;;
36817;SDS011;22761;51.542;16.450;2023-05-07T13:46:17;5.50;;;3.80;;
36817;SDS011;22761;51.542;16.450;2023-05-07T13:48:45;5.70;;;4.40;;
36817;SDS011;22761;51.542;16.450;2023-05-07T13:51:13;5.00;;;3.80;;
36817;SDS011;22761;51.542;16.450;2023-05-07T13:53:42;4.20;;;3.70;;
36817;SDS011;22761;51.542;16.450;2023-05-07T13:56:10;5.00;;;3.90;;
36817;SDS011;22761;51.542;16.450;2023-05-07T13:58:38;5.10;;;3.90;;
36817;SDS011;22761;51.542;16.450;2023-05-07T14:01:26;4.10;;;3.60;;
36817;SDS011;22761;51.542;16.450;2023-05-07T14:03:55;4.40;;;3.70;;
36817;SDS011;22761;51.542;16.450;2023-05-07T14:06:25;4.80;;;3.80;;
36817;SDS011;22761;51.542;16.450;2023-05-07T14:08:54;4.20;;;3.80;;
36817;SDS011;22761;51.542;16.450;2023-05-07T14:11:22;4.30;;;3.80;;
36817;SDS011;22761;51.542;16.450;2023-05-07T14:13:51;5.00;;;3.80;;
36817;SDS011;22761;51.542;16.450;2023-05-07T14:16:19;4.40;;;4.00;;
36817;SDS011;22761;51.542;16.450;2023-05-07T14:18:47;6.30;;;4.10;;
36817;SDS011;22761;51.542;16.450;2023-05-07T14:21:15;5.00;;;4.00;;
36817;SDS011;22761;51.542;16.450;2023-05-07T14:23:43;4.30;;;3.40;;
36817;SDS011;22761;51.542;16.450;2023-05-07T14:26:12;4.10;;;3.30;;
36817;SDS011;22761;51.542;16.450;2023-05-07T14:28:40;5.40;;;3.00;;
36817;SDS011;22761;51.542;16.450;2023-05-07T14:31:14;5.20;;;2.90;;
36817;SDS011;22761;51.542;16.450;2023-05-07T14:33:42;4.20;;;3.00;;
36817;SDS011;22761;51.542;16.450;2023-05-07T14:36:10;3.70;;;3.00;;
36817;SDS011;22761;51.542;16.450;2023-05-07T14:38:39;4.00;;;2.90;;
36817;SDS011;22761;51.542;16.450;2023-05-07T14:41:07;5.00;;;3.40;;
36817;SDS011;22761;51.542;16.450;2023-05-07T14:43:35;3.90;;;3.30;;
36817;SDS011;22761;51.542;16.450;2023-05-07T14:46:03;4.50;;;3.10;;
36817;SDS011;22761;51.542;16.450;2023-05-07T14:48:32;3.40;;;3.10;;
36817;SDS011;22761;51.542;16.450;2023-05-07T14:51:00;3.50;;;2.80;;
36817;SDS011;22761;51.542;16.450;2023-05-07T14:53:29;5.80;;;3.20;;
36817;SDS011;22761;51.542;16.450;2023-05-07T14:55:57;5.10;;;3.20;;
36817;SDS011;22761;51.542;16.450;2023-05-07T14:58:25;4.10;;;3.10;;
36817;SDS011;22761;51.542;16.450;2023-05-07T15:00:53;3.90;;;3.00;;
36817;SDS011;22761;51.542;16.450;2023-05-07T15:03:22;5.30;;;2.90;;
36817;SDS011;22761;51.542;16.450;2023-05-07T15:05:51;3.90;;;3.00;;
36817;SDS011;22761;51.542;16.450;2023-05-07T15:08:19;3.90;;;2.80;;
36817;SDS011;22761;51.542;16.450;2023-05-07T15:10:47;3.40;;;2.60;;
36817;SDS011;22761;51.542;16.450;2023-05-07T15:13:16;3.70;;;2.70;;
36817;SDS011;22761;51.542;16.450;2023-05-07T15:15:44;6.50;;;2.90;;
36817;SDS011;22761;51.542;16.450;2023-05-07T15:18:13;2.80;;;2.50;;
36817;SDS011;22761;51.542;16.450;2023-05-07T15:20:42;3.70;;;2.70;;
36817;SDS011;22761;51.542;16.450;2023-05-07T15:23:10;4.30;;;2.70;;
36817;SDS011;22761;51.542;16.450;2023-05-07T15:25:41;4.10;;;2.70;;
36817;SDS011;22761;51.542;16.450;2023-05-07T15:28:10;3.60;;;2.60;;
36817;SDS011;22761;51.542;16.450;2023-05-07T15:30:38;3.20;;;2.80;;
36817;SDS011;22761;51.542;16.450;2023-05-07T15:33:06;4.10;;;2.90;;
36817;SDS011;22761;51.542;16.450;2023-05-07T15:35:34;5.10;;;2.70;;
36817;SDS011;22761;51.542;16.450;2023-05-07T15:38:03;3.90;;;2.70;;
36817;SDS011;22761;51.542;16.450;2023-05-07T15:40:31;2.60;;;2.30;;
36817;SDS011;22761;51.542;16.450;2023-05-07T15:43:00;5.20;;;2.50;;
36817;SDS011;22761;51.542;16.450;2023-05-07T15:45:28;3.40;;;2.70;;
36817;SDS011;22761;51.542;16.450;2023-05-07T15:47:57;4.00;;;3.00;;
36817;SDS011;22761;51.542;16.450;2023-05-07T15:50:26;5.10;;;2.80;;
36817;SDS011;22761;51.542;16.450;2023-05-07T15:52:54;3.70;;;2.90;;
36817;SDS011;22761;51.542;16.450;2023-05-07T15:55:23;3.00;;;2.70;;